sensor_id;sensor_type;location;lat;lon;timestamp;temperature;humidity
4820;DHT22;2424;49.696;6.630;2023-07-13T00:03:16;17.40;99.90
4820;DHT22;2424;49.696;6.630;2023-07-13T00:08:38;17.30;99.90
4820;DHT22;2424;49.696;6.630;2023-07-13T00:14:00;17.20;99.90
4820;DHT22;2424;49.696;6.630;2023-07-13T00:19:25;17.20;99.90
4820;DHT22;2424;49.696;6.630;2023-07-13T00:24:46;17.20;99.90
4820;DHT22;2424;49.696;6.630;2023-07-13T00:30:09;17.20;99.90
4820;DHT22;2424;49.696;6.630;2023-07-13T00:35:33;17.20;99.90
4820;DHT22;2424;49.696;6.630;2023-07-13T00:40:55;17.20;99.90
4820;DHT22;2424;49.696;6.630;2023-07-13T00:46:24;17.10;99.90
4820;DHT22;2424;49.696;6.630;2023-07-13T00:51:50;17.20;99.90
4820;DHT22;2424;49.696;6.630;2023-07-13T00:57:16;17.20;99.90
4820;DHT22;2424;49.696;6.630;2023-07-13T01:02:41;17.20;99.90
4820;DHT22;2424;49.696;6.630;2023-07-13T01:08:05;17.10;99.90
4820;DHT22;2424;49.696;6.630;2023-07-13T01:13:27;17.20;99.90
4820;DHT22;2424;49.696;6.630;2023-07-13T01:18:49;17.20;99.90
4820;DHT22;2424;49.696;6.630;2023-07-13T01:24:13;17.20;99.90
4820;DHT22;2424;49.696;6.630;2023-07-13T01:29:36;17.20;99.90
4820;DHT22;2424;49.696;6.630;2023-07-13T01:35:03;17.20;99.90
4820;DHT22;2424;49.696;6.630;2023-07-13T01:40:26;17.20;99.90
4820;DHT22;2424;49.696;6.630;2023-07-13T01:45:48;17.30;99.90
4820;DHT22;2424;49.696;6.630;2023-07-13T01:51:10;17.30;99.90
4820;DHT22;2424;49.696;6.630;2023-07-13T01:56:34;17.30;99.90
4820;DHT22;2424;49.696;6.630;2023-07-13T02:01:56;17.30;99.90
4820;DHT22;2424;49.696;6.630;2023-07-13T02:07:18;17.30;99.90
4820;DHT22;2424;49.696;6.630;2023-07-13T02:12:41;17.30;99.90
4820;DHT22;2424;49.696;6.630;2023-07-13T02:18:03;17.30;99.90
4820;DHT22;2424;49.696;6.630;2023-07-13T02:23:25;17.30;99.90
4820;DHT22;2424;49.696;6.630;2023-07-13T02:28:49;17.10;99.90
4820;DHT22;2424;49.696;6.630;2023-07-13T02:34:11;17.10;99.90
4820;DHT22;2424;49.696;6.630;2023-07-13T02:39:32;17.10;99.90
4820;DHT22;2424;49.696;6.630;2023-07-13T02:44:56;17.10;99.90
4820;DHT22;2424;49.696;6.630;2023-07-13T02:50:18;17.10;99.90
4820;DHT22;2424;49.696;6.630;2023-07-13T02:55:40;17.10;99.90
4820;DHT22;2424;49.696;6.630;2023-07-13T03:01:10;17.00;99.90
4820;DHT22;2424;49.696;6.630;2023-07-13T03:06:32;17.00;99.90
4820;DHT22;2424;49.696;6.630;2023-07-13T03:11:55;17.00;99.90
4820;DHT22;2424;49.696;6.630;2023-07-13T03:17:18;16.80;99.90
4820;DHT22;2424;49.696;6.630;2023-07-13T03:22:40;16.80;99.90
4820;DHT22;2424;49.696;6.630;2023-07-13T03:28:02;16.70;99.90
4820;DHT22;2424;49.696;6.630;2023-07-13T03:33:26;16.70;99.90
4820;DHT22;2424;49.696;6.630;2023-07-13T03:38:50;16.50;99.90
4820;DHT22;2424;49.696;6.630;2023-07-13T03:44:12;16.50;99.90
4820;DHT22;2424;49.696;6.630;2023-07-13T03:49:36;16.40;99.90
4820;DHT22;2424;49.696;6.630;2023-07-13T03:54:58;16.50;99.90
4820;DHT22;2424;49.696;6.630;2023-07-13T04:00:20;16.40;99.90
4820;DHT22;2424;49.696;6.630;2023-07-13T04:05:43;16.50;99.90
4820;DHT22;2424;49.696;6.630;2023-07-13T04:11:05;16.60;99.90
4820;DHT22;2424;49.696;6.630;2023-07-13T04:16:30;16.60;99.90
4820;DHT22;2424;49.696;6.630;2023-07-13T04:21:54;16.50;99.90
4820;DHT22;2424;49.696;6.630;2023-07-13T04:27:16;16.50;99.90
4820;DHT22;2424;49.696;6.630;2023-07-13T04:32:37;16.60;99.90
4820;DHT22;2424;49.696;6.630;2023-07-13T04:38:01;16.60;99.90
4820;DHT22;2424;49.696;6.630;2023-07-13T04:43:24;16.60;99.90
4820;DHT22;2424;49.696;6.630;2023-07-13T04:48:46;16.60;99.90
4820;DHT22;2424;49.696;6.630;2023-07-13T04:54:09;16.70;99.90
4820;DHT22;2424;49.696;6.630;2023-07-13T04:59:31;16.70;99.90
4820;DHT22;2424;49.696;6.630;2023-07-13T05:04:53;16.80;99.90
4820;DHT22;2424;49.696;6.630;2023-07-13T05:10:17;16.90;99.90
4820;DHT22;2424;49.696;6.630;2023-07-13T05:15:39;16.90;99.90
4820;DHT22;2424;49.696;6.630;2023-07-13T05:21:02;16.90;99.90
4820;DHT22;2424;49.696;6.630;2023-07-13T05:26:26;17.00;99.90
4820;DHT22;2424;49.696;6.630;2023-07-13T05:31:48;17.00;99.90
4820;DHT22;2424;49.696;6.630;2023-07-13T05:37:11;17.00;99.90
4820;DHT22;2424;49.696;6.630;2023-07-13T05:42:34;16.90;99.90
4820;DHT22;2424;49.696;6.630;2023-07-13T05:47:56;16.80;99.90
4820;DHT22;2424;49.696;6.630;2023-07-13T05:53:18;17.00;99.90
4820;DHT22;2424;49.696;6.630;2023-07-13T05:58:41;16.90;99.90
4820;DHT22;2424;49.696;6.630;2023-07-13T06:04:04;17.00;99.90
4820;DHT22;2424;49.696;6.630;2023-07-13T06:09:25;17.10;99.90
4820;DHT22;2424;49.696;6.630;2023-07-13T06:14:49;17.00;99.90
4820;DHT22;2424;49.696;6.630;2023-07-13T06:20:11;17.20;99.90
4820;DHT22;2424;49.696;6.630;2023-07-13T06:25:33;17.20;99.90
4820;DHT22;2424;49.696;6.630;2023-07-13T06:30:56;17.30;99.90
4820;DHT22;2424;49.696;6.630;2023-07-13T06:36:18;17.30;99.90
4820;DHT22;2424;49.696;6.630;2023-07-13T06:41:40;17.40;99.90
4820;DHT22;2424;49.696;6.630;2023-07-13T06:47:03;17.40;99.90
4820;DHT22;2424;49.696;6.630;2023-07-13T06:52:25;17.50;99.90
4820;DHT22;2424;49.696;6.630;2023-07-13T06:57:47;17.60;99.90
4820;DHT22;2424;49.696;6.630;2023-07-13T07:03:11;17.60;99.90
4820;DHT22;2424;49.696;6.630;2023-07-13T07:08:33;17.70;99.90
4820;DHT22;2424;49.696;6.630;2023-07-13T07:13:55;17.80;99.90
4820;DHT22;2424;49.696;6.630;2023-07-13T07:19:18;17.90;99.90
4820;DHT22;2424;49.696;6.630;2023-07-13T07:24:40;18.00;99.90
4820;DHT22;2424;49.696;6.630;2023-07-13T07:30:02;18.30;99.90
4820;DHT22;2424;49.696;6.630;2023-07-13T07:35:26;18.40;99.90
4820;DHT22;2424;49.696;6.630;2023-07-13T07:40:48;18.50;99.90
4820;DHT22;2424;49.696;6.630;2023-07-13T07:46:10;18.60;99.90
4820;DHT22;2424;49.696;6.630;2023-07-13T07:51:33;18.60;99.90
4820;DHT22;2424;49.696;6.630;2023-07-13T07:56:55;18.80;99.90
4820;DHT22;2424;49.696;6.630;2023-07-13T08:02:17;19.00;99.90
4820;DHT22;2424;49.696;6.630;2023-07-13T08:07:40;19.10;99.90
4820;DHT22;2424;49.696;6.630;2023-07-13T08:13:02;19.20;99.90
4820;DHT22;2424;49.696;6.630;2023-07-13T08:18:24;19.30;99.90
4820;DHT22;2424;49.696;6.630;2023-07-13T08:23:49;19.40;99.90
4820;DHT22;2424;49.696;6.630;2023-07-13T08:29:11;19.50;99.90
4820;DHT22;2424;49.696;6.630;2023-07-13T08:34:33;19.50;99.90
4820;DHT22;2424;49.696;6.630;2023-07-13T08:39:57;19.60;99.90
4820;DHT22;2424;49.696;6.630;2023-07-13T08:45:22;19.70;99.90
4820;DHT22;2424;49.696;6.630;2023-07-13T08:50:52;19.70;99.90
4820;DHT22;2424;49.696;6.630;2023-07-13T08:56:24;19.80;99.90
4820;DHT22;2424;49.696;6.630;2023-07-13T09:02:20;20.10;99.90
4820;DHT22;2424;49.696;6.630;2023-07-13T09:08:12;19.90;99.90
4820;DHT22;2424;49.696;6.630;2023-07-13T09:13:46;20.10;99.90
4820;DHT22;2424;49.696;6.630;2023-07-13T09:19:19;20.30;99.90
4820;DHT22;2424;49.696;6.630;2023-07-13T09:24:52;20.50;99.90
4820;DHT22;2424;49.696;6.630;2023-07-13T09:30:33;20.60;99.90
4820;DHT22;2424;49.696;6.630;2023-07-13T09:35:55;20.50;99.90
4820;DHT22;2424;49.696;6.630;2023-07-13T09:41:23;20.60;99.90
4820;DHT22;2424;49.696;6.630;2023-07-13T09:46:53;20.60;99.90
4820;DHT22;2424;49.696;6.630;2023-07-13T09:52:16;21.00;99.90
4820;DHT22;2424;49.696;6.630;2023-07-13T09:57:46;21.20;99.90
4820;DHT22;2424;49.696;6.630;2023-07-13T10:03:17;20.90;99.90
4820;DHT22;2424;49.696;6.630;2023-07-13T10:08:41;21.20;99.40
4820;DHT22;2424;49.696;6.630;2023-07-13T10:14:14;21.50;98.60
4820;DHT22;2424;49.696;6.630;2023-07-13T10:19:38;21.80;98.10
4820;DHT22;2424;49.696;6.630;2023-07-13T10:25:00;21.60;97.30
4820;DHT22;2424;49.696;6.630;2023-07-13T10:30:24;21.40;97.40
4820;DHT22;2424;49.696;6.630;2023-07-13T10:35:53;21.50;98.20
4820;DHT22;2424;49.696;6.630;2023-07-13T10:41:19;21.80;97.40
4820;DHT22;2424;49.696;6.630;2023-07-13T10:46:43;21.70;97.60
4820;DHT22;2424;49.696;6.630;2023-07-13T10:52:41;21.60;97.90
4820;DHT22;2424;49.696;6.630;2023-07-13T10:58:13;22.20;96.80
4820;DHT22;2424;49.696;6.630;2023-07-13T11:03:37;22.50;96.10
4820;DHT22;2424;49.696;6.630;2023-07-13T11:09:19;22.50;95.90
4820;DHT22;2424;49.696;6.630;2023-07-13T11:15:04;22.20;96.40
4820;DHT22;2424;49.696;6.630;2023-07-13T11:20:33;21.90;95.40
4820;DHT22;2424;49.696;6.630;2023-07-13T11:25:57;22.10;96.40
4820;DHT22;2424;49.696;6.630;2023-07-13T11:31:20;22.30;95.40
4820;DHT22;2424;49.696;6.630;2023-07-13T11:36:44;22.00;95.50
4820;DHT22;2424;49.696;6.630;2023-07-13T11:42:10;22.10;95.30
4820;DHT22;2424;49.696;6.630;2023-07-13T11:47:33;22.10;95.30
4820;DHT22;2424;49.696;6.630;2023-07-13T11:52:57;22.00;95.00
4820;DHT22;2424;49.696;6.630;2023-07-13T11:58:25;21.90;95.60
4820;DHT22;2424;49.696;6.630;2023-07-13T12:03:49;21.70;95.60
4820;DHT22;2424;49.696;6.630;2023-07-13T12:09:13;21.70;96.10
4820;DHT22;2424;49.696;6.630;2023-07-13T12:14:37;21.80;96.00
4820;DHT22;2424;49.696;6.630;2023-07-13T12:19:59;21.90;95.50
4820;DHT22;2424;49.696;6.630;2023-07-13T12:25:22;21.90;95.50
4820;DHT22;2424;49.696;6.630;2023-07-13T12:30:48;21.80;96.00
4820;DHT22;2424;49.696;6.630;2023-07-13T12:36:12;21.90;95.80
4820;DHT22;2424;49.696;6.630;2023-07-13T12:41:34;21.90;95.20
4820;DHT22;2424;49.696;6.630;2023-07-13T12:47:04;22.00;95.30
4820;DHT22;2424;49.696;6.630;2023-07-13T12:52:32;22.10;95.90
4820;DHT22;2424;49.696;6.630;2023-07-13T12:57:56;22.30;96.00
4820;DHT22;2424;49.696;6.630;2023-07-13T13:03:25;22.40;95.60
4820;DHT22;2424;49.696;6.630;2023-07-13T13:08:53;22.60;95.50
4820;DHT22;2424;49.696;6.630;2023-07-13T13:14:15;22.30;95.60
4820;DHT22;2424;49.696;6.630;2023-07-13T13:19:39;22.10;95.30
4820;DHT22;2424;49.696;6.630;2023-07-13T13:25:01;22.20;95.30
4820;DHT22;2424;49.696;6.630;2023-07-13T13:30:23;22.10;94.70
4820;DHT22;2424;49.696;6.630;2023-07-13T13:35:46;21.90;93.90
4820;DHT22;2424;49.696;6.630;2023-07-13T13:41:10;21.70;94.00
4820;DHT22;2424;49.696;6.630;2023-07-13T13:46:33;21.50;94.40
4820;DHT22;2424;49.696;6.630;2023-07-13T13:51:57;21.50;94.40
4820;DHT22;2424;49.696;6.630;2023-07-13T13:57:19;21.50;94.40
4820;DHT22;2424;49.696;6.630;2023-07-13T14:02:44;21.60;94.70
4820;DHT22;2424;49.696;6.630;2023-07-13T14:08:13;21.80;94.90
4820;DHT22;2424;49.696;6.630;2023-07-13T14:13:41;21.90;94.80
4820;DHT22;2424;49.696;6.630;2023-07-13T14:19:04;22.30;95.30
4820;DHT22;2424;49.696;6.630;2023-07-13T14:24:27;22.60;94.40
4820;DHT22;2424;49.696;6.630;2023-07-13T14:29:49;22.40;93.40
4820;DHT22;2424;49.696;6.630;2023-07-13T14:35:11;22.30;93.40
4820;DHT22;2424;49.696;6.630;2023-07-13T14:40:35;22.50;94.20
4820;DHT22;2424;49.696;6.630;2023-07-13T14:45:57;22.60;94.80
4820;DHT22;2424;49.696;6.630;2023-07-13T14:51:20;22.50;94.70
4820;DHT22;2424;49.696;6.630;2023-07-13T14:56:43;22.80;95.10
4820;DHT22;2424;49.696;6.630;2023-07-13T15:02:15;22.70;94.50
4820;DHT22;2424;49.696;6.630;2023-07-13T15:07:37;22.70;95.70
4820;DHT22;2424;49.696;6.630;2023-07-13T15:13:13;22.60;95.50
4820;DHT22;2424;49.696;6.630;2023-07-13T15:18:35;22.80;95.30
4820;DHT22;2424;49.696;6.630;2023-07-13T15:24:01;22.70;95.20
4820;DHT22;2424;49.696;6.630;2023-07-13T15:29:24;22.70;94.90
4820;DHT22;2424;49.696;6.630;2023-07-13T15:34:46;22.60;94.60
4820;DHT22;2424;49.696;6.630;2023-07-13T15:40:09;22.70;93.90
4820;DHT22;2424;49.696;6.630;2023-07-13T15:45:33;22.90;94.10
4820;DHT22;2424;49.696;6.630;2023-07-13T15:51:00;23.00;93.70
4820;DHT22;2424;49.696;6.630;2023-07-13T15:56:28;22.90;93.70
4820;DHT22;2424;49.696;6.630;2023-07-13T16:01:51;22.80;93.40
4820;DHT22;2424;49.696;6.630;2023-07-13T16:07:15;23.00;92.30
4820;DHT22;2424;49.696;6.630;2023-07-13T16:12:38;23.10;92.50
4820;DHT22;2424;49.696;6.630;2023-07-13T16:18:03;23.40;93.60
4820;DHT22;2424;49.696;6.630;2023-07-13T16:23:25;23.30;92.80
4820;DHT22;2424;49.696;6.630;2023-07-13T16:28:48;23.30;92.20
4820;DHT22;2424;49.696;6.630;2023-07-13T16:34:11;23.60;91.80
4820;DHT22;2424;49.696;6.630;2023-07-13T16:39:34;23.80;92.40
4820;DHT22;2424;49.696;6.630;2023-07-13T16:44:56;23.60;92.60
4820;DHT22;2424;49.696;6.630;2023-07-13T16:50:22;23.70;92.40
4820;DHT22;2424;49.696;6.630;2023-07-13T16:55:44;23.80;92.50
4820;DHT22;2424;49.696;6.630;2023-07-13T17:01:06;23.80;91.50
4820;DHT22;2424;49.696;6.630;2023-07-13T17:06:30;24.00;92.00
4820;DHT22;2424;49.696;6.630;2023-07-13T17:11:52;23.60;92.20
4820;DHT22;2424;49.696;6.630;2023-07-13T17:17:17;23.30;92.30
4820;DHT22;2424;49.696;6.630;2023-07-13T17:22:41;23.30;92.60
4820;DHT22;2424;49.696;6.630;2023-07-13T17:28:06;23.20;93.30
4820;DHT22;2424;49.696;6.630;2023-07-13T17:33:32;23.30;93.40
4820;DHT22;2424;49.696;6.630;2023-07-13T17:38:55;23.40;93.50
4820;DHT22;2424;49.696;6.630;2023-07-13T17:44:18;23.40;93.90
4820;DHT22;2424;49.696;6.630;2023-07-13T17:49:41;23.20;93.70
4820;DHT22;2424;49.696;6.630;2023-07-13T17:55:12;23.10;93.60
4820;DHT22;2424;49.696;6.630;2023-07-13T18:00:37;22.90;94.10
4820;DHT22;2424;49.696;6.630;2023-07-13T18:06:03;22.80;94.10
4820;DHT22;2424;49.696;6.630;2023-07-13T18:11:27;22.70;93.90
4820;DHT22;2424;49.696;6.630;2023-07-13T18:16:52;22.70;94.00
4820;DHT22;2424;49.696;6.630;2023-07-13T18:22:16;22.70;93.90
4820;DHT22;2424;49.696;6.630;2023-07-13T18:27:40;22.70;94.10
4820;DHT22;2424;49.696;6.630;2023-07-13T18:33:02;22.50;94.40
4820;DHT22;2424;49.696;6.630;2023-07-13T18:38:26;22.40;94.60
4820;DHT22;2424;49.696;6.630;2023-07-13T18:43:50;22.40;94.50
4820;DHT22;2424;49.696;6.630;2023-07-13T18:49:13;22.30;94.70
4820;DHT22;2424;49.696;6.630;2023-07-13T18:54:35;22.20;94.70
4820;DHT22;2424;49.696;6.630;2023-07-13T18:59:58;22.10;95.10
4820;DHT22;2424;49.696;6.630;2023-07-13T19:05:22;22.00;95.30
4820;DHT22;2424;49.696;6.630;2023-07-13T19:10:48;22.00;95.30
4820;DHT22;2424;49.696;6.630;2023-07-13T19:16:13;21.90;95.40
4820;DHT22;2424;49.696;6.630;2023-07-13T19:21:36;21.90;95.50
4820;DHT22;2424;49.696;6.630;2023-07-13T19:26:59;21.80;95.80
4820;DHT22;2424;49.696;6.630;2023-07-13T19:32:22;21.70;96.00
4820;DHT22;2424;49.696;6.630;2023-07-13T19:37:44;21.70;96.70
4820;DHT22;2424;49.696;6.630;2023-07-13T19:43:10;21.50;97.20
4820;DHT22;2424;49.696;6.630;2023-07-13T19:48:34;21.40;97.90
4820;DHT22;2424;49.696;6.630;2023-07-13T19:53:59;21.20;98.30
4820;DHT22;2424;49.696;6.630;2023-07-13T19:59:25;21.00;98.30
4820;DHT22;2424;49.696;6.630;2023-07-13T20:04:49;20.70;98.50
4820;DHT22;2424;49.696;6.630;2023-07-13T20:10:18;20.60;98.80
4820;DHT22;2424;49.696;6.630;2023-07-13T20:15:41;20.50;99.30
4820;DHT22;2424;49.696;6.630;2023-07-13T20:21:04;20.30;99.70
4820;DHT22;2424;49.696;6.630;2023-07-13T20:26:27;20.20;99.90
4820;DHT22;2424;49.696;6.630;2023-07-13T20:31:49;20.10;99.90
4820;DHT22;2424;49.696;6.630;2023-07-13T20:37:29;20.10;99.90
4820;DHT22;2424;49.696;6.630;2023-07-13T20:42:52;19.90;99.90
4820;DHT22;2424;49.696;6.630;2023-07-13T20:48:27;19.80;99.90
4820;DHT22;2424;49.696;6.630;2023-07-13T20:53:52;19.70;99.90
4820;DHT22;2424;49.696;6.630;2023-07-13T20:59:15;19.70;99.90
4820;DHT22;2424;49.696;6.630;2023-07-13T21:04:37;19.70;99.90
4820;DHT22;2424;49.696;6.630;2023-07-13T21:10:00;19.50;99.90
4820;DHT22;2424;49.696;6.630;2023-07-13T21:15:25;19.40;99.90
4820;DHT22;2424;49.696;6.630;2023-07-13T21:20:49;19.30;99.90
4820;DHT22;2424;49.696;6.630;2023-07-13T21:26:14;19.20;99.90
4820;DHT22;2424;49.696;6.630;2023-07-13T21:31:36;19.10;99.90
4820;DHT22;2424;49.696;6.630;2023-07-13T21:36:58;19.10;99.90
4820;DHT22;2424;49.696;6.630;2023-07-13T21:42:22;19.10;99.90
4820;DHT22;2424;49.696;6.630;2023-07-13T21:47:44;19.00;99.90
4820;DHT22;2424;49.696;6.630;2023-07-13T21:53:17;18.90;99.90
4820;DHT22;2424;49.696;6.630;2023-07-13T21:58:40;18.80;99.90
4820;DHT22;2424;49.696;6.630;2023-07-13T22:04:03;18.70;99.90
4820;DHT22;2424;49.696;6.630;2023-07-13T22:09:26;18.60;99.90
4820;DHT22;2424;49.696;6.630;2023-07-13T22:14:50;18.60;99.90
4820;DHT22;2424;49.696;6.630;2023-07-13T22:20:17;18.50;99.90
4820;DHT22;2424;49.696;6.630;2023-07-13T22:25:39;18.30;99.90
4820;DHT22;2424;49.696;6.630;2023-07-13T22:31:02;18.20;99.90
4820;DHT22;2424;49.696;6.630;2023-07-13T22:36:25;18.10;99.90
4820;DHT22;2424;49.696;6.630;2023-07-13T22:41:47;18.00;99.90
4820;DHT22;2424;49.696;6.630;2023-07-13T22:47:15;18.00;99.90
4820;DHT22;2424;49.696;6.630;2023-07-13T22:52:37;17.90;99.90
4820;DHT22;2424;49.696;6.630;2023-07-13T22:57:59;17.80;99.90
4820;DHT22;2424;49.696;6.630;2023-07-13T23:03:24;17.70;99.90
4820;DHT22;2424;49.696;6.630;2023-07-13T23:08:48;17.60;99.90
4820;DHT22;2424;49.696;6.630;2023-07-13T23:14:10;17.60;99.90
4820;DHT22;2424;49.696;6.630;2023-07-13T23:19:36;17.60;99.90
4820;DHT22;2424;49.696;6.630;2023-07-13T23:24:58;17.50;99.90
4820;DHT22;2424;49.696;6.630;2023-07-13T23:30:22;17.40;99.90
4820;DHT22;2424;49.696;6.630;2023-07-13T23:35:48;17.30;99.90
4820;DHT22;2424;49.696;6.630;2023-07-13T23:41:10;17.20;99.90
4820;DHT22;2424;49.696;6.630;2023-07-13T23:46:37;17.10;99.90
4820;DHT22;2424;49.696;6.630;2023-07-13T23:52:03;17.00;99.90
4820;DHT22;2424;49.696;6.630;2023-07-13T23:57:25;16.90;99.90
